sensor_id;sensor_type;location;lat;lon;timestamp;P1;durP1;ratioP1;P2;durP2;ratioP2
36185;SDS011;22228;53.222;7.446;2023-10-31T00:01:52;21.13;;;18.67;;
36185;SDS011;22228;53.222;7.446;2023-10-31T00:04:14;18.87;;;16.87;;
36185;SDS011;22228;53.222;7.446;2023-10-31T00:06:35;19.27;;;16.20;;
36185;SDS011;22228;53.222;7.446;2023-10-31T00:08:55;21.60;;;17.37;;
36185;SDS011;22228;53.222;7.446;2023-10-31T00:11:16;19.67;;;17.37;;
36185;SDS011;22228;53.222;7.446;2023-10-31T00:13:37;14.33;;;12.53;;
36185;SDS011;22228;53.222;7.446;2023-10-31T00:15:57;16.83;;;13.40;;
36185;SDS011;22228;53.222;7.446;2023-10-31T00:18:18;13.97;;;12.57;;
36185;SDS011;22228;53.222;7.446;2023-10-31T00:20:40;13.77;;;11.97;;
36185;SDS011;22228;53.222;7.446;2023-10-31T00:23:01;13.50;;;12.20;;
36185;SDS011;22228;53.222;7.446;2023-10-31T00:25:21;14.07;;;12.40;;
36185;SDS011;22228;53.222;7.446;2023-10-31T00:27:42;13.93;;;12.67;;
36185;SDS011;22228;53.222;7.446;2023-10-31T00:30:03;14.00;;;12.60;;
36185;SDS011;22228;53.222;7.446;2023-10-31T00:32:25;13.57;;;12.27;;
36185;SDS011;22228;53.222;7.446;2023-10-31T00:34:47;15.13;;;13.23;;
36185;SDS011;22228;53.222;7.446;2023-10-31T00:37:09;15.13;;;13.43;;
36185;SDS011;22228;53.222;7.446;2023-10-31T00:39:30;14.40;;;12.37;;
36185;SDS011;22228;53.222;7.446;2023-10-31T00:41:52;16.50;;;14.77;;
36185;SDS011;22228;53.222;7.446;2023-10-31T00:44:14;18.03;;;14.83;;
36185;SDS011;22228;53.222;7.446;2023-10-31T00:46:35;14.37;;;12.87;;
36185;SDS011;22228;53.222;7.446;2023-10-31T00:48:55;16.53;;;13.83;;
36185;SDS011;22228;53.222;7.446;2023-10-31T00:51:16;14.43;;;12.67;;
36185;SDS011;22228;53.222;7.446;2023-10-31T00:53:38;16.17;;;14.23;;
36185;SDS011;22228;53.222;7.446;2023-10-31T00:55:59;14.87;;;12.80;;
36185;SDS011;22228;53.222;7.446;2023-10-31T00:58:20;17.40;;;14.03;;
36185;SDS011;22228;53.222;7.446;2023-10-31T01:00:40;14.97;;;13.43;;
36185;SDS011;22228;53.222;7.446;2023-10-31T01:03:01;15.70;;;13.40;;
36185;SDS011;22228;53.222;7.446;2023-10-31T01:05:22;14.90;;;13.10;;
36185;SDS011;22228;53.222;7.446;2023-10-31T01:07:42;14.30;;;12.80;;
36185;SDS011;22228;53.222;7.446;2023-10-31T01:10:05;16.30;;;12.80;;
36185;SDS011;22228;53.222;7.446;2023-10-31T01:12:26;13.97;;;12.67;;
36185;SDS011;22228;53.222;7.446;2023-10-31T01:14:46;13.77;;;12.37;;
36185;SDS011;22228;53.222;7.446;2023-10-31T04:01:51;2.53;;;2.17;;
36185;SDS011;22228;53.222;7.446;2023-10-31T04:04:12;3.23;;;2.00;;
36185;SDS011;22228;53.222;7.446;2023-10-31T04:06:32;3.93;;;2.20;;
36185;SDS011;22228;53.222;7.446;2023-10-31T04:08:52;3.17;;;1.77;;
36185;SDS011;22228;53.222;7.446;2023-10-31T04:11:13;4.03;;;1.70;;
36185;SDS011;22228;53.222;7.446;2023-10-31T04:13:33;4.93;;;2.00;;
36185;SDS011;22228;53.222;7.446;2023-10-31T04:15:54;5.47;;;2.00;;
36185;SDS011;22228;53.222;7.446;2023-10-31T04:18:16;5.63;;;2.00;;
36185;SDS011;22228;53.222;7.446;2023-10-31T04:20:36;5.57;;;2.07;;
36185;SDS011;22228;53.222;7.446;2023-10-31T04:22:56;5.00;;;1.90;;
36185;SDS011;22228;53.222;7.446;2023-10-31T04:25:16;5.30;;;1.77;;
36185;SDS011;22228;53.222;7.446;2023-10-31T04:27:37;8.47;;;2.17;;
36185;SDS011;22228;53.222;7.446;2023-10-31T04:29:57;5.60;;;2.00;;
36185;SDS011;22228;53.222;7.446;2023-10-31T04:32:18;5.03;;;2.20;;
36185;SDS011;22228;53.222;7.446;2023-10-31T04:34:40;10.17;;;2.10;;
36185;SDS011;22228;53.222;7.446;2023-10-31T04:37:01;6.73;;;2.23;;
36185;SDS011;22228;53.222;7.446;2023-10-31T04:39:21;4.23;;;2.37;;
36185;SDS011;22228;53.222;7.446;2023-10-31T04:41:42;9.73;;;2.20;;
36185;SDS011;22228;53.222;7.446;2023-10-31T04:44:02;6.30;;;2.43;;
36185;SDS011;22228;53.222;7.446;2023-10-31T04:46:24;5.27;;;2.30;;
36185;SDS011;22228;53.222;7.446;2023-10-31T04:48:45;7.67;;;2.30;;
36185;SDS011;22228;53.222;7.446;2023-10-31T04:51:07;5.67;;;1.83;;
36185;SDS011;22228;53.222;7.446;2023-10-31T04:53:28;5.80;;;2.50;;
36185;SDS011;22228;53.222;7.446;2023-10-31T04:55:48;9.77;;;3.43;;
36185;SDS011;22228;53.222;7.446;2023-10-31T04:58:09;4.63;;;3.40;;
36185;SDS011;22228;53.222;7.446;2023-10-31T05:00:29;6.10;;;3.43;;
36185;SDS011;22228;53.222;7.446;2023-10-31T05:02:50;5.57;;;2.77;;
36185;SDS011;22228;53.222;7.446;2023-10-31T05:05:11;8.40;;;2.60;;
36185;SDS011;22228;53.222;7.446;2023-10-31T05:07:33;5.10;;;2.00;;
36185;SDS011;22228;53.222;7.446;2023-10-31T05:09:53;7.10;;;2.00;;
36185;SDS011;22228;53.222;7.446;2023-10-31T05:12:14;6.47;;;1.83;;
36185;SDS011;22228;53.222;7.446;2023-10-31T05:14:35;3.30;;;1.87;;
36185;SDS011;22228;53.222;7.446;2023-10-31T05:16:56;5.77;;;2.80;;
36185;SDS011;22228;53.222;7.446;2023-10-31T05:19:16;3.90;;;2.60;;
36185;SDS011;22228;53.222;7.446;2023-10-31T05:21:37;5.00;;;3.00;;
36185;SDS011;22228;53.222;7.446;2023-10-31T05:23:59;4.17;;;3.40;;
36185;SDS011;22228;53.222;7.446;2023-10-31T05:26:19;5.90;;;3.67;;
36185;SDS011;22228;53.222;7.446;2023-10-31T05:28:40;4.30;;;3.83;;
36185;SDS011;22228;53.222;7.446;2023-10-31T05:31:01;4.90;;;3.30;;
36185;SDS011;22228;53.222;7.446;2023-10-31T05:33:22;6.23;;;3.73;;
36185;SDS011;22228;53.222;7.446;2023-10-31T05:35:42;7.47;;;4.30;;
36185;SDS011;22228;53.222;7.446;2023-10-31T05:38:03;5.87;;;4.37;;
36185;SDS011;22228;53.222;7.446;2023-10-31T05:40:25;5.27;;;4.23;;
36185;SDS011;22228;53.222;7.446;2023-10-31T05:42:46;4.60;;;3.60;;
36185;SDS011;22228;53.222;7.446;2023-10-31T05:45:07;8.03;;;4.47;;
36185;SDS011;22228;53.222;7.446;2023-10-31T05:47:28;6.90;;;4.57;;
36185;SDS011;22228;53.222;7.446;2023-10-31T05:49:49;4.40;;;4.00;;
36185;SDS011;22228;53.222;7.446;2023-10-31T05:52:09;4.23;;;3.83;;
36185;SDS011;22228;53.222;7.446;2023-10-31T05:54:30;6.63;;;4.30;;
36185;SDS011;22228;53.222;7.446;2023-10-31T05:56:52;5.37;;;4.00;;
36185;SDS011;22228;53.222;7.446;2023-10-31T05:59:12;6.20;;;4.07;;
36185;SDS011;22228;53.222;7.446;2023-10-31T06:01:33;6.40;;;3.70;;
36185;SDS011;22228;53.222;7.446;2023-10-31T06:03:53;8.40;;;4.60;;
36185;SDS011;22228;53.222;7.446;2023-10-31T06:06:14;6.03;;;5.10;;
36185;SDS011;22228;53.222;7.446;2023-10-31T06:08:34;7.23;;;5.13;;
36185;SDS011;22228;53.222;7.446;2023-10-31T06:10:55;5.13;;;4.47;;
36185;SDS011;22228;53.222;7.446;2023-10-31T06:13:16;4.90;;;4.50;;
36185;SDS011;22228;53.222;7.446;2023-10-31T06:15:37;4.40;;;4.00;;
36185;SDS011;22228;53.222;7.446;2023-10-31T06:17:58;4.07;;;3.73;;
36185;SDS011;22228;53.222;7.446;2023-10-31T06:20:18;4.50;;;4.10;;
36185;SDS011;22228;53.222;7.446;2023-10-31T06:22:39;3.50;;;2.80;;
36185;SDS011;22228;53.222;7.446;2023-10-31T06:24:59;5.37;;;2.70;;
36185;SDS011;22228;53.222;7.446;2023-10-31T06:27:20;2.97;;;1.80;;
36185;SDS011;22228;53.222;7.446;2023-10-31T06:29:42;2.60;;;1.73;;
36185;SDS011;22228;53.222;7.446;2023-10-31T06:32:03;1.83;;;1.20;;
36185;SDS011;22228;53.222;7.446;2023-10-31T06:34:24;1.47;;;0.80;;
36185;SDS011;22228;53.222;7.446;2023-10-31T06:36:44;1.67;;;0.80;;
36185;SDS011;22228;53.222;7.446;2023-10-31T06:39:05;2.50;;;0.70;;
36185;SDS011;22228;53.222;7.446;2023-10-31T06:41:25;2.30;;;0.60;;
36185;SDS011;22228;53.222;7.446;2023-10-31T06:43:46;1.63;;;0.80;;
36185;SDS011;22228;53.222;7.446;2023-10-31T06:46:08;1.53;;;0.57;;
36185;SDS011;22228;53.222;7.446;2023-10-31T06:48:28;0.57;;;0.40;;
36185;SDS011;22228;53.222;7.446;2023-10-31T06:50:49;2.13;;;0.60;;
36185;SDS011;22228;53.222;7.446;2023-10-31T06:53:09;1.60;;;0.47;;
36185;SDS011;22228;53.222;7.446;2023-10-31T06:55:30;0.60;;;0.40;;
36185;SDS011;22228;53.222;7.446;2023-10-31T06:57:50;0.80;;;0.60;;
36185;SDS011;22228;53.222;7.446;2023-10-31T07:00:11;1.57;;;0.50;;
36185;SDS011;22228;53.222;7.446;2023-10-31T07:02:33;0.93;;;0.40;;
36185;SDS011;22228;53.222;7.446;2023-10-31T07:04:55;1.83;;;0.70;;
36185;SDS011;22228;53.222;7.446;2023-10-31T07:07:15;1.03;;;0.57;;
36185;SDS011;22228;53.222;7.446;2023-10-31T07:09:35;1.90;;;0.83;;
36185;SDS011;22228;53.222;7.446;2023-10-31T07:11:56;1.30;;;1.20;;
36185;SDS011;22228;53.222;7.446;2023-10-31T07:14:17;2.67;;;1.60;;
36185;SDS011;22228;53.222;7.446;2023-10-31T07:16:37;2.73;;;2.20;;
36185;SDS011;22228;53.222;7.446;2023-10-31T07:19:00;2.27;;;2.17;;
36185;SDS011;22228;53.222;7.446;2023-10-31T07:21:20;2.00;;;1.90;;
36185;SDS011;22228;53.222;7.446;2023-10-31T07:23:41;3.87;;;2.20;;
36185;SDS011;22228;53.222;7.446;2023-10-31T07:26:02;2.27;;;2.07;;
36185;SDS011;22228;53.222;7.446;2023-10-31T07:28:24;2.03;;;1.50;;
36185;SDS011;22228;53.222;7.446;2023-10-31T07:30:44;2.30;;;1.47;;
36185;SDS011;22228;53.222;7.446;2023-10-31T07:33:04;1.47;;;1.37;;
36185;SDS011;22228;53.222;7.446;2023-10-31T07:35:26;1.60;;;1.50;;
36185;SDS011;22228;53.222;7.446;2023-10-31T07:37:47;2.10;;;2.00;;
36185;SDS011;22228;53.222;7.446;2023-10-31T07:40:08;3.23;;;2.87;;
36185;SDS011;22228;53.222;7.446;2023-10-31T07:42:29;4.53;;;3.60;;
36185;SDS011;22228;53.222;7.446;2023-10-31T07:44:50;6.17;;;5.57;;
36185;SDS011;22228;53.222;7.446;2023-10-31T07:47:10;10.10;;;8.87;;
36185;SDS011;22228;53.222;7.446;2023-10-31T07:49:31;10.17;;;9.07;;
36185;SDS011;22228;53.222;7.446;2023-10-31T07:51:53;9.37;;;8.47;;
36185;SDS011;22228;53.222;7.446;2023-10-31T07:54:14;8.40;;;7.60;;
36185;SDS011;22228;53.222;7.446;2023-10-31T07:56:35;7.50;;;6.90;;
36185;SDS011;22228;53.222;7.446;2023-10-31T07:58:56;7.27;;;6.20;;
36185;SDS011;22228;53.222;7.446;2023-10-31T08:01:17;6.67;;;6.00;;
36185;SDS011;22228;53.222;7.446;2023-10-31T08:03:37;6.30;;;5.70;;
36185;SDS011;22228;53.222;7.446;2023-10-31T08:05:58;6.93;;;6.37;;
36185;SDS011;22228;53.222;7.446;2023-10-31T08:08:20;7.10;;;6.20;;
36185;SDS011;22228;53.222;7.446;2023-10-31T08:10:41;7.50;;;6.37;;
36185;SDS011;22228;53.222;7.446;2023-10-31T08:13:01;8.03;;;6.93;;
36185;SDS011;22228;53.222;7.446;2023-10-31T08:15:22;6.63;;;6.10;;
36185;SDS011;22228;53.222;7.446;2023-10-31T08:17:42;8.23;;;6.17;;
36185;SDS011;22228;53.222;7.446;2023-10-31T08:20:03;7.10;;;6.40;;
36185;SDS011;22228;53.222;7.446;2023-10-31T08:22:25;7.30;;;6.60;;
36185;SDS011;22228;53.222;7.446;2023-10-31T08:24:47;7.87;;;7.07;;
36185;SDS011;22228;53.222;7.446;2023-10-31T08:27:07;9.47;;;7.00;;
36185;SDS011;22228;53.222;7.446;2023-10-31T08:29:29;7.37;;;6.63;;
36185;SDS011;22228;53.222;7.446;2023-10-31T08:31:49;7.17;;;6.47;;
36185;SDS011;22228;53.222;7.446;2023-10-31T08:34:10;7.10;;;6.50;;
36185;SDS011;22228;53.222;7.446;2023-10-31T08:36:30;6.23;;;5.73;;
36185;SDS011;22228;53.222;7.446;2023-10-31T08:38:51;7.10;;;6.50;;
36185;SDS011;22228;53.222;7.446;2023-10-31T08:41:13;8.90;;;6.83;;
36185;SDS011;22228;53.222;7.446;2023-10-31T08:43:38;7.33;;;6.63;;
36185;SDS011;22228;53.222;7.446;2023-10-31T08:45:59;6.27;;;5.77;;
36185;SDS011;22228;53.222;7.446;2023-10-31T08:48:19;7.90;;;6.50;;
36185;SDS011;22228;53.222;7.446;2023-10-31T08:50:40;6.13;;;5.50;;
36185;SDS011;22228;53.222;7.446;2023-10-31T08:53:00;6.07;;;4.97;;
36185;SDS011;22228;53.222;7.446;2023-10-31T08:55:21;6.03;;;5.53;;
36185;SDS011;22228;53.222;7.446;2023-10-31T08:57:43;5.87;;;5.37;;
36185;SDS011;22228;53.222;7.446;2023-10-31T09:00:04;5.63;;;5.03;;
36185;SDS011;22228;53.222;7.446;2023-10-31T09:02:25;5.40;;;4.87;;
36185;SDS011;22228;53.222;7.446;2023-10-31T09:04:46;5.23;;;4.67;;
36185;SDS011;22228;53.222;7.446;2023-10-31T09:07:07;5.10;;;4.57;;
36185;SDS011;22228;53.222;7.446;2023-10-31T09:09:28;5.13;;;4.63;;
36185;SDS011;22228;53.222;7.446;2023-10-31T09:11:48;5.17;;;4.57;;
36185;SDS011;22228;53.222;7.446;2023-10-31T09:14:10;4.73;;;4.20;;
36185;SDS011;22228;53.222;7.446;2023-10-31T09:16:31;4.77;;;3.47;;
36185;SDS011;22228;53.222;7.446;2023-10-31T09:18:51;3.70;;;3.40;;
36185;SDS011;22228;53.222;7.446;2023-10-31T09:21:12;5.47;;;3.37;;
36185;SDS011;22228;53.222;7.446;2023-10-31T09:23:33;3.87;;;3.10;;
36185;SDS011;22228;53.222;7.446;2023-10-31T09:25:53;5.13;;;3.03;;
36185;SDS011;22228;53.222;7.446;2023-10-31T09:28:15;3.60;;;2.50;;
36185;SDS011;22228;53.222;7.446;2023-10-31T09:30:37;3.90;;;2.43;;
36185;SDS011;22228;53.222;7.446;2023-10-31T09:32:57;5.97;;;2.10;;
36185;SDS011;22228;53.222;7.446;2023-10-31T09:35:18;7.70;;;1.53;;
36185;SDS011;22228;53.222;7.446;2023-10-31T09:37:39;2.93;;;1.43;;
36185;SDS011;22228;53.222;7.446;2023-10-31T09:40:01;2.60;;;1.10;;
36185;SDS011;22228;53.222;7.446;2023-10-31T09:42:22;2.17;;;0.97;;
36185;SDS011;22228;53.222;7.446;2023-10-31T09:44:43;4.73;;;2.80;;
36185;SDS011;22228;53.222;7.446;2023-10-31T09:47:05;2.87;;;1.33;;
36185;SDS011;22228;53.222;7.446;2023-10-31T09:49:26;5.63;;;1.40;;
36185;SDS011;22228;53.222;7.446;2023-10-31T09:51:47;2.40;;;1.13;;
36185;SDS011;22228;53.222;7.446;2023-10-31T09:54:08;2.43;;;1.30;;
36185;SDS011;22228;53.222;7.446;2023-10-31T09:56:32;4.03;;;1.40;;
36185;SDS011;22228;53.222;7.446;2023-10-31T09:58:53;4.10;;;1.40;;
36185;SDS011;22228;53.222;7.446;2023-10-31T10:01:14;2.43;;;0.90;;
36185;SDS011;22228;53.222;7.446;2023-10-31T10:03:36;3.50;;;0.90;;
36185;SDS011;22228;53.222;7.446;2023-10-31T10:05:57;3.57;;;0.70;;
36185;SDS011;22228;53.222;7.446;2023-10-31T10:08:18;4.73;;;1.07;;
36185;SDS011;22228;53.222;7.446;2023-10-31T10:10:40;3.00;;;0.60;;
36185;SDS011;22228;53.222;7.446;2023-10-31T10:13:01;3.20;;;0.50;;
36185;SDS011;22228;53.222;7.446;2023-10-31T10:15:23;2.20;;;0.40;;
36185;SDS011;22228;53.222;7.446;2023-10-31T10:17:47;4.97;;;0.60;;
36185;SDS011;22228;53.222;7.446;2023-10-31T10:20:11;2.93;;;0.60;;
36185;SDS011;22228;53.222;7.446;2023-10-31T10:22:31;3.03;;;0.63;;
36185;SDS011;22228;53.222;7.446;2023-10-31T10:24:52;2.00;;;0.50;;
36185;SDS011;22228;53.222;7.446;2023-10-31T10:27:12;3.10;;;0.60;;
36185;SDS011;22228;53.222;7.446;2023-10-31T10:29:33;2.90;;;0.53;;
36185;SDS011;22228;53.222;7.446;2023-10-31T10:31:53;4.37;;;0.50;;
36185;SDS011;22228;53.222;7.446;2023-10-31T10:34:14;2.03;;;0.50;;
36185;SDS011;22228;53.222;7.446;2023-10-31T10:36:37;3.37;;;0.50;;
36185;SDS011;22228;53.222;7.446;2023-10-31T10:38:58;3.23;;;0.33;;
36185;SDS011;22228;53.222;7.446;2023-10-31T10:41:19;2.80;;;0.30;;
36185;SDS011;22228;53.222;7.446;2023-10-31T10:43:41;0.97;;;0.40;;
36185;SDS011;22228;53.222;7.446;2023-10-31T10:46:02;2.70;;;0.40;;
36185;SDS011;22228;53.222;7.446;2023-10-31T10:48:28;1.53;;;0.40;;
36185;SDS011;22228;53.222;7.446;2023-10-31T10:50:50;1.70;;;0.40;;
36185;SDS011;22228;53.222;7.446;2023-10-31T10:53:28;2.33;;;0.30;;
36185;SDS011;22228;53.222;7.446;2023-10-31T10:55:55;0.50;;;0.33;;
36185;SDS011;22228;53.222;7.446;2023-10-31T10:58:21;2.13;;;0.33;;
36185;SDS011;22228;53.222;7.446;2023-10-31T11:00:46;1.17;;;0.40;;
36185;SDS011;22228;53.222;7.446;2023-10-31T11:03:08;1.90;;;0.50;;
36185;SDS011;22228;53.222;7.446;2023-10-31T11:05:30;1.03;;;0.30;;
36185;SDS011;22228;53.222;7.446;2023-10-31T11:07:51;2.90;;;0.30;;
36185;SDS011;22228;53.222;7.446;2023-10-31T11:10:15;0.43;;;0.20;;
36185;SDS011;22228;53.222;7.446;2023-10-31T11:12:38;1.30;;;0.40;;
36185;SDS011;22228;53.222;7.446;2023-10-31T11:14:59;1.87;;;0.40;;
36185;SDS011;22228;53.222;7.446;2023-10-31T11:17:22;3.03;;;0.40;;
36185;SDS011;22228;53.222;7.446;2023-10-31T11:19:46;1.53;;;0.40;;
36185;SDS011;22228;53.222;7.446;2023-10-31T11:22:06;1.60;;;0.40;;
36185;SDS011;22228;53.222;7.446;2023-10-31T11:24:27;2.07;;;0.30;;
36185;SDS011;22228;53.222;7.446;2023-10-31T11:26:52;2.10;;;0.60;;
36185;SDS011;22228;53.222;7.446;2023-10-31T11:29:13;0.70;;;0.20;;
36185;SDS011;22228;53.222;7.446;2023-10-31T11:31:33;1.20;;;0.40;;
36185;SDS011;22228;53.222;7.446;2023-10-31T11:33:56;2.27;;;0.70;;
36185;SDS011;22228;53.222;7.446;2023-10-31T11:36:17;2.73;;;0.30;;
36185;SDS011;22228;53.222;7.446;2023-10-31T11:38:39;1.93;;;0.27;;
36185;SDS011;22228;53.222;7.446;2023-10-31T11:41:01;2.57;;;0.43;;
36185;SDS011;22228;53.222;7.446;2023-10-31T11:43:23;1.80;;;0.30;;
36185;SDS011;22228;53.222;7.446;2023-10-31T11:45:44;1.50;;;0.27;;
36185;SDS011;22228;53.222;7.446;2023-10-31T11:48:06;2.60;;;0.30;;
36185;SDS011;22228;53.222;7.446;2023-10-31T11:50:26;2.77;;;0.47;;
36185;SDS011;22228;53.222;7.446;2023-10-31T11:52:57;1.50;;;0.40;;
36185;SDS011;22228;53.222;7.446;2023-10-31T11:55:23;1.63;;;0.50;;
36185;SDS011;22228;53.222;7.446;2023-10-31T11:57:44;1.13;;;0.40;;
36185;SDS011;22228;53.222;7.446;2023-10-31T12:00:11;1.63;;;0.60;;
36185;SDS011;22228;53.222;7.446;2023-10-31T12:02:40;1.03;;;0.40;;
36185;SDS011;22228;53.222;7.446;2023-10-31T12:05:08;4.40;;;0.70;;
36185;SDS011;22228;53.222;7.446;2023-10-31T12:07:28;2.00;;;0.43;;
36185;SDS011;22228;53.222;7.446;2023-10-31T12:09:50;1.73;;;0.40;;
36185;SDS011;22228;53.222;7.446;2023-10-31T12:12:11;2.57;;;0.40;;
36185;SDS011;22228;53.222;7.446;2023-10-31T12:14:32;2.00;;;0.60;;
36185;SDS011;22228;53.222;7.446;2023-10-31T12:16:53;1.97;;;0.30;;
36185;SDS011;22228;53.222;7.446;2023-10-31T12:19:14;3.37;;;0.60;;
36185;SDS011;22228;53.222;7.446;2023-10-31T12:21:38;0.63;;;0.30;;
36185;SDS011;22228;53.222;7.446;2023-10-31T12:24:01;1.73;;;0.53;;
36185;SDS011;22228;53.222;7.446;2023-10-31T12:26:23;2.87;;;0.50;;
36185;SDS011;22228;53.222;7.446;2023-10-31T12:28:43;2.17;;;0.40;;
36185;SDS011;22228;53.222;7.446;2023-10-31T12:31:04;4.33;;;0.80;;
36185;SDS011;22228;53.222;7.446;2023-10-31T12:33:28;2.23;;;0.50;;
36185;SDS011;22228;53.222;7.446;2023-10-31T12:35:49;2.90;;;0.60;;
36185;SDS011;22228;53.222;7.446;2023-10-31T12:38:09;2.57;;;0.60;;
36185;SDS011;22228;53.222;7.446;2023-10-31T12:40:30;3.87;;;0.53;;
36185;SDS011;22228;53.222;7.446;2023-10-31T12:42:51;3.37;;;0.40;;
36185;SDS011;22228;53.222;7.446;2023-10-31T12:45:13;3.53;;;0.50;;
36185;SDS011;22228;53.222;7.446;2023-10-31T12:47:34;2.00;;;0.60;;
36185;SDS011;22228;53.222;7.446;2023-10-31T12:50:08;2.17;;;0.60;;
36185;SDS011;22228;53.222;7.446;2023-10-31T12:52:44;2.10;;;0.50;;
36185;SDS011;22228;53.222;7.446;2023-10-31T12:55:11;5.17;;;0.70;;
36185;SDS011;22228;53.222;7.446;2023-10-31T12:57:35;3.17;;;0.53;;
36185;SDS011;22228;53.222;7.446;2023-10-31T12:59:55;2.47;;;0.70;;
36185;SDS011;22228;53.222;7.446;2023-10-31T13:02:16;2.67;;;0.40;;
36185;SDS011;22228;53.222;7.446;2023-10-31T13:04:37;3.60;;;0.70;;
36185;SDS011;22228;53.222;7.446;2023-10-31T13:07:00;2.03;;;0.43;;
36185;SDS011;22228;53.222;7.446;2023-10-31T13:09:21;6.53;;;1.47;;
36185;SDS011;22228;53.222;7.446;2023-10-31T13:11:42;4.47;;;1.10;;
36185;SDS011;22228;53.222;7.446;2023-10-31T13:14:02;3.33;;;0.80;;
36185;SDS011;22228;53.222;7.446;2023-10-31T13:16:23;4.17;;;1.07;;
36185;SDS011;22228;53.222;7.446;2023-10-31T13:18:45;3.53;;;0.67;;
36185;SDS011;22228;53.222;7.446;2023-10-31T13:21:06;3.50;;;0.60;;
36185;SDS011;22228;53.222;7.446;2023-10-31T13:23:28;4.93;;;0.80;;
36185;SDS011;22228;53.222;7.446;2023-10-31T13:25:49;3.93;;;0.90;;
36185;SDS011;22228;53.222;7.446;2023-10-31T13:28:09;4.40;;;0.60;;
36185;SDS011;22228;53.222;7.446;2023-10-31T13:30:31;3.60;;;0.63;;
36185;SDS011;22228;53.222;7.446;2023-10-31T13:32:52;2.47;;;0.60;;
36185;SDS011;22228;53.222;7.446;2023-10-31T13:35:13;2.73;;;0.60;;
36185;SDS011;22228;53.222;7.446;2023-10-31T13:37:33;4.00;;;0.57;;
36185;SDS011;22228;53.222;7.446;2023-10-31T13:39:55;1.20;;;0.63;;
36185;SDS011;22228;53.222;7.446;2023-10-31T13:42:16;4.57;;;0.50;;
36185;SDS011;22228;53.222;7.446;2023-10-31T13:44:36;1.83;;;0.50;;
36185;SDS011;22228;53.222;7.446;2023-10-31T13:46:57;5.27;;;0.60;;
36185;SDS011;22228;53.222;7.446;2023-10-31T13:49:17;3.20;;;0.70;;
36185;SDS011;22228;53.222;7.446;2023-10-31T13:51:38;1.60;;;0.50;;
36185;SDS011;22228;53.222;7.446;2023-10-31T13:53:58;3.93;;;0.60;;
36185;SDS011;22228;53.222;7.446;2023-10-31T13:56:20;1.63;;;0.43;;
36185;SDS011;22228;53.222;7.446;2023-10-31T13:58:41;2.17;;;0.50;;
36185;SDS011;22228;53.222;7.446;2023-10-31T14:01:01;2.27;;;0.50;;
36185;SDS011;22228;53.222;7.446;2023-10-31T14:03:22;2.53;;;0.60;;
36185;SDS011;22228;53.222;7.446;2023-10-31T14:05:42;5.03;;;0.87;;
36185;SDS011;22228;53.222;7.446;2023-10-31T14:08:04;4.03;;;0.63;;
36185;SDS011;22228;53.222;7.446;2023-10-31T14:10:25;3.27;;;0.50;;
36185;SDS011;22228;53.222;7.446;2023-10-31T14:12:47;4.80;;;0.73;;
36185;SDS011;22228;53.222;7.446;2023-10-31T14:15:08;2.53;;;0.50;;
36185;SDS011;22228;53.222;7.446;2023-10-31T14:17:29;3.73;;;0.73;;
36185;SDS011;22228;53.222;7.446;2023-10-31T14:19:50;2.37;;;0.60;;
36185;SDS011;22228;53.222;7.446;2023-10-31T14:22:11;2.63;;;0.80;;
36185;SDS011;22228;53.222;7.446;2023-10-31T14:24:32;1.70;;;0.67;;
36185;SDS011;22228;53.222;7.446;2023-10-31T14:26:54;1.63;;;0.60;;
36185;SDS011;22228;53.222;7.446;2023-10-31T14:29:16;2.43;;;0.60;;
36185;SDS011;22228;53.222;7.446;2023-10-31T14:31:40;1.50;;;0.60;;
36185;SDS011;22228;53.222;7.446;2023-10-31T14:34:00;3.27;;;0.83;;
36185;SDS011;22228;53.222;7.446;2023-10-31T14:36:21;2.87;;;0.70;;
36185;SDS011;22228;53.222;7.446;2023-10-31T14:38:42;2.23;;;0.60;;
36185;SDS011;22228;53.222;7.446;2023-10-31T14:41:03;2.63;;;1.00;;
36185;SDS011;22228;53.222;7.446;2023-10-31T14:43:24;2.10;;;0.50;;
36185;SDS011;22228;53.222;7.446;2023-10-31T14:45:46;3.37;;;0.50;;
36185;SDS011;22228;53.222;7.446;2023-10-31T14:48:06;0.83;;;0.47;;
36185;SDS011;22228;53.222;7.446;2023-10-31T14:50:26;2.60;;;0.60;;
36185;SDS011;22228;53.222;7.446;2023-10-31T14:52:47;2.30;;;0.50;;
36185;SDS011;22228;53.222;7.446;2023-10-31T14:55:08;2.87;;;0.67;;
36185;SDS011;22228;53.222;7.446;2023-10-31T14:57:28;3.73;;;0.70;;
36185;SDS011;22228;53.222;7.446;2023-10-31T14:59:49;0.63;;;0.40;;
36185;SDS011;22228;53.222;7.446;2023-10-31T15:02:11;4.47;;;1.00;;
36185;SDS011;22228;53.222;7.446;2023-10-31T15:04:31;2.43;;;0.80;;
36185;SDS011;22228;53.222;7.446;2023-10-31T15:06:51;4.33;;;0.73;;
36185;SDS011;22228;53.222;7.446;2023-10-31T15:09:11;3.07;;;0.80;;
36185;SDS011;22228;53.222;7.446;2023-10-31T15:11:32;2.23;;;0.90;;
36185;SDS011;22228;53.222;7.446;2023-10-31T15:13:52;2.37;;;0.80;;
36185;SDS011;22228;53.222;7.446;2023-10-31T15:16:13;2.77;;;0.80;;
36185;SDS011;22228;53.222;7.446;2023-10-31T15:18:35;2.90;;;0.53;;
36185;SDS011;22228;53.222;7.446;2023-10-31T15:20:55;0.93;;;0.70;;
36185;SDS011;22228;53.222;7.446;2023-10-31T15:23:17;3.70;;;1.00;;
36185;SDS011;22228;53.222;7.446;2023-10-31T15:25:38;2.67;;;0.90;;
36185;SDS011;22228;53.222;7.446;2023-10-31T15:27:58;2.70;;;1.00;;
36185;SDS011;22228;53.222;7.446;2023-10-31T15:30:19;4.43;;;0.70;;
36185;SDS011;22228;53.222;7.446;2023-10-31T15:32:39;2.87;;;0.67;;
36185;SDS011;22228;53.222;7.446;2023-10-31T15:35:01;1.37;;;0.70;;
36185;SDS011;22228;53.222;7.446;2023-10-31T15:37:23;4.03;;;0.93;;
36185;SDS011;22228;53.222;7.446;2023-10-31T15:39:44;1.67;;;0.90;;
36185;SDS011;22228;53.222;7.446;2023-10-31T15:42:07;2.87;;;1.33;;
36185;SDS011;22228;53.222;7.446;2023-10-31T15:44:27;4.00;;;2.60;;
36185;SDS011;22228;53.222;7.446;2023-10-31T15:46:48;4.27;;;3.07;;
36185;SDS011;22228;53.222;7.446;2023-10-31T15:49:09;3.23;;;2.70;;
36185;SDS011;22228;53.222;7.446;2023-10-31T15:51:30;5.10;;;2.70;;
36185;SDS011;22228;53.222;7.446;2023-10-31T15:53:52;4.63;;;2.50;;
36185;SDS011;22228;53.222;7.446;2023-10-31T15:56:12;6.87;;;2.20;;
36185;SDS011;22228;53.222;7.446;2023-10-31T15:58:33;3.27;;;2.07;;
36185;SDS011;22228;53.222;7.446;2023-10-31T16:00:54;4.47;;;2.03;;
36185;SDS011;22228;53.222;7.446;2023-10-31T16:03:14;6.40;;;2.73;;
36185;SDS011;22228;53.222;7.446;2023-10-31T16:05:36;4.83;;;3.47;;
36185;SDS011;22228;53.222;7.446;2023-10-31T16:07:58;4.60;;;3.33;;
36185;SDS011;22228;53.222;7.446;2023-10-31T16:10:18;6.77;;;3.10;;
36185;SDS011;22228;53.222;7.446;2023-10-31T16:12:39;1.83;;;1.37;;
36185;SDS011;22228;53.222;7.446;2023-10-31T16:15:00;4.23;;;1.93;;
36185;SDS011;22228;53.222;7.446;2023-10-31T16:17:20;3.73;;;1.10;;
36185;SDS011;22228;53.222;7.446;2023-10-31T16:19:41;3.50;;;1.30;;
36185;SDS011;22228;53.222;7.446;2023-10-31T16:22:02;5.27;;;1.77;;
36185;SDS011;22228;53.222;7.446;2023-10-31T16:24:24;2.10;;;1.33;;
36185;SDS011;22228;53.222;7.446;2023-10-31T16:26:45;1.83;;;1.10;;
36185;SDS011;22228;53.222;7.446;2023-10-31T16:29:06;3.07;;;1.30;;
36185;SDS011;22228;53.222;7.446;2023-10-31T16:31:32;2.53;;;1.00;;
36185;SDS011;22228;53.222;7.446;2023-10-31T16:33:53;2.60;;;1.20;;
36185;SDS011;22228;53.222;7.446;2023-10-31T16:36:13;2.90;;;1.10;;
36185;SDS011;22228;53.222;7.446;2023-10-31T16:38:34;1.87;;;1.00;;
36185;SDS011;22228;53.222;7.446;2023-10-31T16:40:56;3.33;;;1.13;;
36185;SDS011;22228;53.222;7.446;2023-10-31T16:43:19;2.57;;;0.90;;
36185;SDS011;22228;53.222;7.446;2023-10-31T16:45:40;5.07;;;1.33;;
36185;SDS011;22228;53.222;7.446;2023-10-31T16:48:01;1.50;;;1.10;;
36185;SDS011;22228;53.222;7.446;2023-10-31T16:50:21;3.90;;;1.27;;
36185;SDS011;22228;53.222;7.446;2023-10-31T16:52:42;3.50;;;1.27;;
36185;SDS011;22228;53.222;7.446;2023-10-31T16:55:02;1.73;;;0.60;;